KCEF/CEF METAR and TAF weather

Enter ICAO airport designator
Station Type Date Time Source
KCEF METAR 2019/08/22 06:13 UTC NOAA

KCEF 220613Z AUTO 17005KT 2 1/2SM BR BKN002 19/19 A2983 RMK AO2 VIS 1 3/8V2 3/4 VIS 5/8 RWY05 VIS 1 3/8 RWY33 BKN V OVC SLP106


Station Type Date Time Source
KCEF Decoded METAR 2019/08/22 06:13 UTC NOAA

Station name not available
Aug 22, 2019 - 02:13 AM EDT / 2019.08.22 0613 UTC
Wind: from the S (170 degrees) at 6 MPH (5 KT):0
Visibility: 2 1/2 mile(s):0
Sky conditions: mostly cloudy
Weather: mist
Temperature: 66 F (19 C)
Dew Point: 66 F (19 C)
Relative Humidity: 100%
Pressure (altimeter): 29.83 in. Hg (1010 hPa)
ob: KCEF 220613Z AUTO 17005KT 2 1/2SM BR BKN002 19/19 A2983 RMK AO2 VIS 1 3/8V2 3/4 VIS 5/8 RWY05 VIS 1 3/8 RWY33 BKN V OVC SLP106
cycle: 6

Station Type Date Time Source
KCEF TAF 2019/08/22 02:03 UTC NOAA

TAF TAF KCEF 220200Z 2202/2308 22009KT 9999 FEW015 SCT250 QNH2983INS
BECMG 2206/2207 VRB06KT 6000 BR SKC QNH2983INS
BECMG 2208/2209 00000KT 1600 BR SKC QNH2984INS
BECMG 2211/2212 VRB06KT 8000 BR SKC QNH2986INS
BECMG 2213/2214 27009KT 9999 NSW FEW010 FEW150 QNH2986INS
BECMG 2215/2216 28012KT 9999 SCT050 BKN200 QNH2984INS
BECMG 2222/2223 VRB06KT 9999 FEW030 BKN150 QNH2986INS
BECMG 2303/2304 33012KT 8000 -RA BKN015 OVC030 QNH2992INS TX31/2219Z TN19/2210Z LAST NO
AMDS AFT 2203 NEXT 2210

Example: see airport list